sensor_id;sensor_type;location;lat;lon;timestamp;temperature;humidity
19248;DHT22;9758;48.640;8.148;2024-03-23T00:55:01;17.60;49.50
19248;DHT22;9758;48.640;8.148;2024-03-23T00:57:27;17.60;49.40
19248;DHT22;9758;48.640;8.148;2024-03-23T00:59:54;17.70;49.40
19248;DHT22;9758;48.640;8.148;2024-03-23T01:02:20;17.70;49.20
19248;DHT22;9758;48.640;8.148;2024-03-23T01:04:46;17.70;49.30
19248;DHT22;9758;48.640;8.148;2024-03-23T01:07:13;17.70;49.30
19248;DHT22;9758;48.640;8.148;2024-03-23T01:09:40;17.70;49.30
19248;DHT22;9758;48.640;8.148;2024-03-23T01:12:06;17.70;49.20
19248;DHT22;9758;48.640;8.148;2024-03-23T01:14:33;17.70;49.20
19248;DHT22;9758;48.640;8.148;2024-03-23T01:16:59;17.70;49.20
19248;DHT22;9758;48.640;8.148;2024-03-23T01:19:25;17.70;49.20
19248;DHT22;9758;48.640;8.148;2024-03-23T01:21:51;17.70;49.20
19248;DHT22;9758;48.640;8.148;2024-03-23T01:24:19;17.70;49.10
19248;DHT22;9758;48.640;8.148;2024-03-23T01:26:45;17.70;49.30
19248;DHT22;9758;48.640;8.148;2024-03-23T01:29:12;17.60;49.20
19248;DHT22;9758;48.640;8.148;2024-03-23T01:31:37;17.60;49.20
19248;DHT22;9758;48.640;8.148;2024-03-23T01:34:06;17.60;49.30
19248;DHT22;9758;48.640;8.148;2024-03-23T01:36:33;17.60;49.20
19248;DHT22;9758;48.640;8.148;2024-03-23T01:39:00;17.60;49.30
19248;DHT22;9758;48.640;8.148;2024-03-23T01:41:27;17.60;49.20
19248;DHT22;9758;48.640;8.148;2024-03-23T01:43:55;17.50;49.30
19248;DHT22;9758;48.640;8.148;2024-03-23T01:46:20;17.50;49.30
19248;DHT22;9758;48.640;8.148;2024-03-23T01:48:47;17.50;49.40
19248;DHT22;9758;48.640;8.148;2024-03-23T01:51:14;17.50;49.40
19248;DHT22;9758;48.640;8.148;2024-03-23T01:53:41;17.50;49.40
19248;DHT22;9758;48.640;8.148;2024-03-23T01:56:07;17.40;49.30
19248;DHT22;9758;48.640;8.148;2024-03-23T01:58:35;17.40;49.30
19248;DHT22;9758;48.640;8.148;2024-03-23T02:01:01;17.40;49.40
19248;DHT22;9758;48.640;8.148;2024-03-23T02:03:28;17.40;49.40
19248;DHT22;9758;48.640;8.148;2024-03-23T02:05:54;17.30;49.40
19248;DHT22;9758;48.640;8.148;2024-03-23T02:08:22;17.30;49.50
19248;DHT22;9758;48.640;8.148;2024-03-23T02:10:48;17.20;49.60
19248;DHT22;9758;48.640;8.148;2024-03-23T02:13:16;17.20;49.60
19248;DHT22;9758;48.640;8.148;2024-03-23T02:15:43;17.20;49.60
19248;DHT22;9758;48.640;8.148;2024-03-23T02:18:10;17.20;49.60
19248;DHT22;9758;48.640;8.148;2024-03-23T02:20:36;17.10;49.60
19248;DHT22;9758;48.640;8.148;2024-03-23T02:23:05;17.10;49.60
19248;DHT22;9758;48.640;8.148;2024-03-23T02:25:31;17.10;49.70
19248;DHT22;9758;48.640;8.148;2024-03-23T02:27:59;17.00;49.60
19248;DHT22;9758;48.640;8.148;2024-03-23T02:30:25;17.00;49.60
19248;DHT22;9758;48.640;8.148;2024-03-23T02:32:51;16.90;49.60
19248;DHT22;9758;48.640;8.148;2024-03-23T02:35:17;16.80;49.70
19248;DHT22;9758;48.640;8.148;2024-03-23T02:37:46;16.80;49.80
19248;DHT22;9758;48.640;8.148;2024-03-23T02:40:13;16.70;49.90
19248;DHT22;9758;48.640;8.148;2024-03-23T02:42:40;16.70;50.00
19248;DHT22;9758;48.640;8.148;2024-03-23T02:45:06;16.70;50.00
19248;DHT22;9758;48.640;8.148;2024-03-23T02:47:33;16.60;50.00
19248;DHT22;9758;48.640;8.148;2024-03-23T02:49:59;16.60;50.00
19248;DHT22;9758;48.640;8.148;2024-03-23T02:52:25;16.60;50.10
19248;DHT22;9758;48.640;8.148;2024-03-23T02:54:51;16.60;50.10
19248;DHT22;9758;48.640;8.148;2024-03-23T02:57:19;16.50;50.10
19248;DHT22;9758;48.640;8.148;2024-03-23T02:59:45;16.50;50.10
19248;DHT22;9758;48.640;8.148;2024-03-23T03:02:13;16.40;50.20
19248;DHT22;9758;48.640;8.148;2024-03-23T03:04:39;16.40;50.20
19248;DHT22;9758;48.640;8.148;2024-03-23T03:07:06;16.40;50.30
19248;DHT22;9758;48.640;8.148;2024-03-23T03:09:32;16.40;50.30
19248;DHT22;9758;48.640;8.148;2024-03-23T03:12:00;16.40;50.50
19248;DHT22;9758;48.640;8.148;2024-03-23T03:14:28;16.40;50.50
19248;DHT22;9758;48.640;8.148;2024-03-23T03:16:55;16.40;50.60
19248;DHT22;9758;48.640;8.148;2024-03-23T03:19:21;16.40;50.40
19248;DHT22;9758;48.640;8.148;2024-03-23T03:21:48;16.40;50.40
19248;DHT22;9758;48.640;8.148;2024-03-23T03:24:14;16.40;50.50
19248;DHT22;9758;48.640;8.148;2024-03-23T03:26:40;16.40;50.40
19248;DHT22;9758;48.640;8.148;2024-03-23T03:29:06;16.50;50.40
19248;DHT22;9758;48.640;8.148;2024-03-23T03:31:34;16.50;50.40
19248;DHT22;9758;48.640;8.148;2024-03-23T03:34:00;16.50;50.40
19248;DHT22;9758;48.640;8.148;2024-03-23T03:36:28;16.40;50.40
19248;DHT22;9758;48.640;8.148;2024-03-23T03:38:53;16.40;51.70
19248;DHT22;9758;48.640;8.148;2024-03-23T03:41:20;15.90;51.70
19248;DHT22;9758;48.640;8.148;2024-03-23T03:43:46;15.30;52.00
19248;DHT22;9758;48.640;8.148;2024-03-23T03:46:13;14.90;52.60
19248;DHT22;9758;48.640;8.148;2024-03-23T03:48:40;14.50;53.20
19248;DHT22;9758;48.640;8.148;2024-03-23T03:51:07;14.30;53.40
19248;DHT22;9758;48.640;8.148;2024-03-23T03:53:32;14.20;53.40
19248;DHT22;9758;48.640;8.148;2024-03-23T03:56:00;14.10;53.50
19248;DHT22;9758;48.640;8.148;2024-03-23T03:58:26;14.10;53.60
19248;DHT22;9758;48.640;8.148;2024-03-23T04:00:53;14.00;53.60
19248;DHT22;9758;48.640;8.148;2024-03-23T04:03:19;14.00;53.50
19248;DHT22;9758;48.640;8.148;2024-03-23T04:05:51;13.90;53.40
19248;DHT22;9758;48.640;8.148;2024-03-23T04:08:17;13.80;54.00
19248;DHT22;9758;48.640;8.148;2024-03-23T04:10:44;13.70;53.70
19248;DHT22;9758;48.640;8.148;2024-03-23T04:13:10;13.60;54.00
19248;DHT22;9758;48.640;8.148;2024-03-23T04:15:37;13.50;54.00
19248;DHT22;9758;48.640;8.148;2024-03-23T04:18:03;13.40;54.50
19248;DHT22;9758;48.640;8.148;2024-03-23T04:20:29;13.40;54.30
19248;DHT22;9758;48.640;8.148;2024-03-23T04:22:57;13.40;54.30
19248;DHT22;9758;48.640;8.148;2024-03-23T04:25:23;13.30;54.30
19248;DHT22;9758;48.640;8.148;2024-03-23T04:27:49;13.30;54.50
19248;DHT22;9758;48.640;8.148;2024-03-23T04:30:17;13.20;54.30
19248;DHT22;9758;48.640;8.148;2024-03-23T04:32:43;13.20;54.60
19248;DHT22;9758;48.640;8.148;2024-03-23T04:35:10;13.20;54.50
19248;DHT22;9758;48.640;8.148;2024-03-23T04:37:36;13.20;54.50
19248;DHT22;9758;48.640;8.148;2024-03-23T04:40:05;13.20;54.80
19248;DHT22;9758;48.640;8.148;2024-03-23T04:42:33;13.10;54.70
19248;DHT22;9758;48.640;8.148;2024-03-23T04:45:00;13.10;54.90
19248;DHT22;9758;48.640;8.148;2024-03-23T04:47:27;13.10;54.90
19248;DHT22;9758;48.640;8.148;2024-03-23T04:49:54;13.00;55.10
19248;DHT22;9758;48.640;8.148;2024-03-23T04:52:21;13.00;54.70
19248;DHT22;9758;48.640;8.148;2024-03-23T04:54:48;12.90;55.00
19248;DHT22;9758;48.640;8.148;2024-03-23T04:57:15;12.80;54.90
19248;DHT22;9758;48.640;8.148;2024-03-23T04:59:42;12.70;54.80
19248;DHT22;9758;48.640;8.148;2024-03-23T05:02:08;12.70;55.40
19248;DHT22;9758;48.640;8.148;2024-03-23T05:04:35;12.50;55.50
19248;DHT22;9758;48.640;8.148;2024-03-23T05:07:02;12.40;56.00
19248;DHT22;9758;48.640;8.148;2024-03-23T05:09:30;12.40;56.10
19248;DHT22;9758;48.640;8.148;2024-03-23T05:11:55;12.40;55.90
19248;DHT22;9758;48.640;8.148;2024-03-23T05:14:24;12.40;55.60
19248;DHT22;9758;48.640;8.148;2024-03-23T05:16:50;12.30;55.60
19248;DHT22;9758;48.640;8.148;2024-03-23T05:19:17;12.20;55.50
19248;DHT22;9758;48.640;8.148;2024-03-23T05:21:43;12.20;55.50
19248;DHT22;9758;48.640;8.148;2024-03-23T05:24:10;12.10;55.50
19248;DHT22;9758;48.640;8.148;2024-03-23T05:26:37;12.00;55.50
19248;DHT22;9758;48.640;8.148;2024-03-23T05:29:04;12.00;55.20
19248;DHT22;9758;48.640;8.148;2024-03-23T05:31:31;11.90;55.20
19248;DHT22;9758;48.640;8.148;2024-03-23T05:33:58;11.90;55.40
19248;DHT22;9758;48.640;8.148;2024-03-23T05:36:24;11.90;55.10
19248;DHT22;9758;48.640;8.148;2024-03-23T05:38:50;11.90;55.20
19248;DHT22;9758;48.640;8.148;2024-03-23T05:41:16;11.90;55.00
19248;DHT22;9758;48.640;8.148;2024-03-23T05:43:43;11.90;55.10
19248;DHT22;9758;48.640;8.148;2024-03-23T05:46:09;11.90;55.10
19248;DHT22;9758;48.640;8.148;2024-03-23T05:48:37;11.90;55.00
19248;DHT22;9758;48.640;8.148;2024-03-23T05:51:03;11.90;55.10
19248;DHT22;9758;48.640;8.148;2024-03-23T05:53:30;11.90;54.90
19248;DHT22;9758;48.640;8.148;2024-03-23T05:56:01;11.90;54.90
19248;DHT22;9758;48.640;8.148;2024-03-23T05:58:29;11.80;54.80
19248;DHT22;9758;48.640;8.148;2024-03-23T06:01:00;11.80;55.20
19248;DHT22;9758;48.640;8.148;2024-03-23T06:03:26;11.70;55.00
19248;DHT22;9758;48.640;8.148;2024-03-23T06:05:55;11.70;55.10
19248;DHT22;9758;48.640;8.148;2024-03-23T06:08:21;11.70;55.20
19248;DHT22;9758;48.640;8.148;2024-03-23T06:10:49;11.70;55.30
19248;DHT22;9758;48.640;8.148;2024-03-23T06:13:15;11.70;55.20
19248;DHT22;9758;48.640;8.148;2024-03-23T06:15:43;11.70;55.30
19248;DHT22;9758;48.640;8.148;2024-03-23T06:18:09;11.70;55.20
19248;DHT22;9758;48.640;8.148;2024-03-23T06:20:36;11.70;55.70
19248;DHT22;9758;48.640;8.148;2024-03-23T06:23:03;11.70;55.30
19248;DHT22;9758;48.640;8.148;2024-03-23T06:25:30;11.70;55.50
19248;DHT22;9758;48.640;8.148;2024-03-23T06:27:56;11.60;55.90
19248;DHT22;9758;48.640;8.148;2024-03-23T06:30:23;11.50;55.80
19248;DHT22;9758;48.640;8.148;2024-03-23T06:32:49;11.40;56.10
19248;DHT22;9758;48.640;8.148;2024-03-23T06:35:16;11.40;56.00
19248;DHT22;9758;48.640;8.148;2024-03-23T06:37:42;11.30;56.00
19248;DHT22;9758;48.640;8.148;2024-03-23T06:40:10;11.30;56.20
19248;DHT22;9758;48.640;8.148;2024-03-23T06:42:36;11.20;56.60
19248;DHT22;9758;48.640;8.148;2024-03-23T06:45:04;11.20;56.70
19248;DHT22;9758;48.640;8.148;2024-03-23T06:47:30;11.10;56.50
19248;DHT22;9758;48.640;8.148;2024-03-23T06:49:58;11.10;56.50
19248;DHT22;9758;48.640;8.148;2024-03-23T06:52:24;11.00;56.80
19248;DHT22;9758;48.640;8.148;2024-03-23T06:54:51;11.00;56.90
19248;DHT22;9758;48.640;8.148;2024-03-23T06:57:18;11.00;56.50
19248;DHT22;9758;48.640;8.148;2024-03-23T06:59:45;11.00;56.80
19248;DHT22;9758;48.640;8.148;2024-03-23T07:02:11;11.00;56.90
19248;DHT22;9758;48.640;8.148;2024-03-23T07:04:37;11.00;57.00
19248;DHT22;9758;48.640;8.148;2024-03-23T07:07:05;10.90;57.10
19248;DHT22;9758;48.640;8.148;2024-03-23T07:09:31;10.80;56.90
19248;DHT22;9758;48.640;8.148;2024-03-23T07:11:57;10.80;56.90
19248;DHT22;9758;48.640;8.148;2024-03-23T07:14:26;10.80;57.50
19248;DHT22;9758;48.640;8.148;2024-03-23T07:16:52;10.80;56.70
19248;DHT22;9758;48.640;8.148;2024-03-23T07:19:18;10.80;56.90
19248;DHT22;9758;48.640;8.148;2024-03-23T07:21:44;10.80;56.80
19248;DHT22;9758;48.640;8.148;2024-03-23T07:24:11;10.70;56.90
19248;DHT22;9758;48.640;8.148;2024-03-23T07:26:37;10.70;56.90
19248;DHT22;9758;48.640;8.148;2024-03-23T07:29:05;10.80;57.00
19248;DHT22;9758;48.640;8.148;2024-03-23T07:31:32;10.80;56.80
19248;DHT22;9758;48.640;8.148;2024-03-23T07:33:59;10.80;56.70
19248;DHT22;9758;48.640;8.148;2024-03-23T07:36:25;10.80;56.70
19248;DHT22;9758;48.640;8.148;2024-03-23T07:38:52;10.80;57.00
19248;DHT22;9758;48.640;8.148;2024-03-23T07:41:20;10.70;56.70
19248;DHT22;9758;48.640;8.148;2024-03-23T07:43:47;10.60;56.70
19248;DHT22;9758;48.640;8.148;2024-03-23T07:46:14;10.60;56.70
19248;DHT22;9758;48.640;8.148;2024-03-23T07:48:43;10.60;56.80
19248;DHT22;9758;48.640;8.148;2024-03-23T07:51:09;10.60;56.80
19248;DHT22;9758;48.640;8.148;2024-03-23T07:53:37;10.50;56.70
19248;DHT22;9758;48.640;8.148;2024-03-23T07:56:05;10.50;56.60
19248;DHT22;9758;48.640;8.148;2024-03-23T07:58:32;10.50;56.70
19248;DHT22;9758;48.640;8.148;2024-03-23T08:01:04;10.50;56.60
19248;DHT22;9758;48.640;8.148;2024-03-23T08:03:33;10.50;56.60
19248;DHT22;9758;48.640;8.148;2024-03-23T08:06:08;10.50;56.50
19248;DHT22;9758;48.640;8.148;2024-03-23T08:08:37;10.40;56.50
19248;DHT22;9758;48.640;8.148;2024-03-23T08:11:03;10.40;56.40
19248;DHT22;9758;48.640;8.148;2024-03-23T08:13:30;10.40;56.30
19248;DHT22;9758;48.640;8.148;2024-03-23T08:15:57;10.30;56.20
19248;DHT22;9758;48.640;8.148;2024-03-23T08:18:24;10.20;56.30
19248;DHT22;9758;48.640;8.148;2024-03-23T08:20:56;10.30;56.40
19248;DHT22;9758;48.640;8.148;2024-03-23T08:23:24;10.30;56.40
19248;DHT22;9758;48.640;8.148;2024-03-23T08:25:50;10.30;56.40
19248;DHT22;9758;48.640;8.148;2024-03-23T08:28:17;10.30;56.20
19248;DHT22;9758;48.640;8.148;2024-03-23T08:30:43;10.40;56.20
19248;DHT22;9758;48.640;8.148;2024-03-23T08:33:11;10.30;56.00
19248;DHT22;9758;48.640;8.148;2024-03-23T08:35:36;10.30;56.10
19248;DHT22;9758;48.640;8.148;2024-03-23T08:38:03;10.30;56.10
19248;DHT22;9758;48.640;8.148;2024-03-23T08:40:31;10.30;56.10
19248;DHT22;9758;48.640;8.148;2024-03-23T08:42:57;10.30;56.20
19248;DHT22;9758;48.640;8.148;2024-03-23T08:45:24;10.30;56.10
19248;DHT22;9758;48.640;8.148;2024-03-23T08:47:51;10.30;56.30
19248;DHT22;9758;48.640;8.148;2024-03-23T08:50:17;10.30;56.20
19248;DHT22;9758;48.640;8.148;2024-03-23T08:52:44;10.30;56.20
19248;DHT22;9758;48.640;8.148;2024-03-23T08:55:10;10.30;56.20
19248;DHT22;9758;48.640;8.148;2024-03-23T08:57:38;10.30;56.40
19248;DHT22;9758;48.640;8.148;2024-03-23T09:00:05;10.30;56.40
19248;DHT22;9758;48.640;8.148;2024-03-23T09:02:34;10.40;56.50
19248;DHT22;9758;48.640;8.148;2024-03-23T09:05:00;10.50;56.40
19248;DHT22;9758;48.640;8.148;2024-03-23T09:07:30;10.50;56.40
19248;DHT22;9758;48.640;8.148;2024-03-23T09:09:55;10.70;56.20
19248;DHT22;9758;48.640;8.148;2024-03-23T09:12:22;10.80;56.10
19248;DHT22;9758;48.640;8.148;2024-03-23T09:14:50;11.00;56.10
19248;DHT22;9758;48.640;8.148;2024-03-23T09:17:18;11.10;55.80
19248;DHT22;9758;48.640;8.148;2024-03-23T09:19:44;11.30;55.60
19248;DHT22;9758;48.640;8.148;2024-03-23T09:22:11;11.40;55.20
19248;DHT22;9758;48.640;8.148;2024-03-23T09:24:38;11.50;54.90
19248;DHT22;9758;48.640;8.148;2024-03-23T09:27:05;11.50;54.90
19248;DHT22;9758;48.640;8.148;2024-03-23T09:29:31;11.50;55.00
19248;DHT22;9758;48.640;8.148;2024-03-23T09:31:59;11.50;54.60
19248;DHT22;9758;48.640;8.148;2024-03-23T09:34:25;11.50;54.80
19248;DHT22;9758;48.640;8.148;2024-03-23T09:36:52;11.60;55.00
19248;DHT22;9758;48.640;8.148;2024-03-23T09:39:18;11.70;55.00
19248;DHT22;9758;48.640;8.148;2024-03-23T09:41:45;11.80;54.60
19248;DHT22;9758;48.640;8.148;2024-03-23T09:44:11;11.90;54.30
19248;DHT22;9758;48.640;8.148;2024-03-23T09:46:38;11.80;53.30
19248;DHT22;9758;48.640;8.148;2024-03-23T09:49:07;11.40;52.90
19248;DHT22;9758;48.640;8.148;2024-03-23T09:51:35;10.50;53.50
19248;DHT22;9758;48.640;8.148;2024-03-23T09:54:01;9.60;54.40
19248;DHT22;9758;48.640;8.148;2024-03-23T09:56:28;9.10;55.50
19248;DHT22;9758;48.640;8.148;2024-03-23T09:59:00;8.80;56.20
19248;DHT22;9758;48.640;8.148;2024-03-23T10:01:27;8.60;56.70
19248;DHT22;9758;48.640;8.148;2024-03-23T10:03:54;8.60;57.00
19248;DHT22;9758;48.640;8.148;2024-03-23T10:06:23;8.70;57.10
19248;DHT22;9758;48.640;8.148;2024-03-23T10:08:50;8.70;57.10
19248;DHT22;9758;48.640;8.148;2024-03-23T10:11:18;8.70;57.00
19248;DHT22;9758;48.640;8.148;2024-03-23T10:13:45;8.70;56.90
19248;DHT22;9758;48.640;8.148;2024-03-23T10:16:21;8.70;56.80
19248;DHT22;9758;48.640;8.148;2024-03-23T10:18:47;8.70;57.00
19248;DHT22;9758;48.640;8.148;2024-03-23T10:21:15;8.80;57.00
19248;DHT22;9758;48.640;8.148;2024-03-23T10:23:43;9.00;57.00
19248;DHT22;9758;48.640;8.148;2024-03-23T10:26:15;9.10;56.80
19248;DHT22;9758;48.640;8.148;2024-03-23T10:28:55;9.10;56.60
19248;DHT22;9758;48.640;8.148;2024-03-23T10:31:25;9.20;56.70
19248;DHT22;9758;48.640;8.148;2024-03-23T10:33:50;9.40;56.70
19248;DHT22;9758;48.640;8.148;2024-03-23T10:36:20;9.50;56.80
19248;DHT22;9758;48.640;8.148;2024-03-23T10:38:47;9.70;56.80
19248;DHT22;9758;48.640;8.148;2024-03-23T10:41:16;9.90;56.70
19248;DHT22;9758;48.640;8.148;2024-03-23T10:43:43;10.10;56.60
19248;DHT22;9758;48.640;8.148;2024-03-23T10:46:11;10.30;56.30
19248;DHT22;9758;48.640;8.148;2024-03-23T10:48:37;10.30;56.10
19248;DHT22;9758;48.640;8.148;2024-03-23T10:51:05;10.40;56.20
19248;DHT22;9758;48.640;8.148;2024-03-23T10:53:34;10.50;56.10
19248;DHT22;9758;48.640;8.148;2024-03-23T10:56:04;10.60;56.00
19248;DHT22;9758;48.640;8.148;2024-03-23T10:58:33;10.70;55.90
19248;DHT22;9758;48.640;8.148;2024-03-23T11:01:03;10.70;55.70
19248;DHT22;9758;48.640;8.148;2024-03-23T11:03:32;10.80;55.50
19248;DHT22;9758;48.640;8.148;2024-03-23T11:06:00;10.80;55.50
19248;DHT22;9758;48.640;8.148;2024-03-23T11:08:33;10.80;55.40
19248;DHT22;9758;48.640;8.148;2024-03-23T11:11:16;10.70;55.30
19248;DHT22;9758;48.640;8.148;2024-03-23T11:13:43;10.70;55.50
19248;DHT22;9758;48.640;8.148;2024-03-23T11:16:16;10.70;55.50
19248;DHT22;9758;48.640;8.148;2024-03-23T11:18:42;10.60;55.60
19248;DHT22;9758;48.640;8.148;2024-03-23T11:21:10;10.60;55.50
19248;DHT22;9758;48.640;8.148;2024-03-23T11:23:35;10.60;55.60
19248;DHT22;9758;48.640;8.148;2024-03-23T11:26:02;10.60;55.70
19248;DHT22;9758;48.640;8.148;2024-03-23T11:28:33;10.60;55.70
19248;DHT22;9758;48.640;8.148;2024-03-23T11:31:00;10.60;55.70
19248;DHT22;9758;48.640;8.148;2024-03-23T11:33:26;10.60;55.80
19248;DHT22;9758;48.640;8.148;2024-03-23T11:35:54;10.70;56.00
19248;DHT22;9758;48.640;8.148;2024-03-23T11:38:20;10.70;56.00
19248;DHT22;9758;48.640;8.148;2024-03-23T11:40:48;10.80;56.00
19248;DHT22;9758;48.640;8.148;2024-03-23T11:43:16;10.80;55.80
19248;DHT22;9758;48.640;8.148;2024-03-23T11:45:45;10.90;55.70
19248;DHT22;9758;48.640;8.148;2024-03-23T11:48:12;10.90;55.70
19248;DHT22;9758;48.640;8.148;2024-03-23T11:50:40;10.90;55.80
19248;DHT22;9758;48.640;8.148;2024-03-23T11:53:13;10.90;55.60
19248;DHT22;9758;48.640;8.148;2024-03-23T11:55:42;10.90;55.70
19248;DHT22;9758;48.640;8.148;2024-03-23T11:58:08;11.00;55.80
19248;DHT22;9758;48.640;8.148;2024-03-23T12:00:35;11.10;55.70
19248;DHT22;9758;48.640;8.148;2024-03-23T12:03:03;11.10;55.30
19248;DHT22;9758;48.640;8.148;2024-03-23T12:05:31;11.00;55.30
19248;DHT22;9758;48.640;8.148;2024-03-23T12:08:15;11.00;55.30
19248;DHT22;9758;48.640;8.148;2024-03-23T12:10:44;10.90;55.40
19248;DHT22;9758;48.640;8.148;2024-03-23T12:13:10;10.90;55.20
19248;DHT22;9758;48.640;8.148;2024-03-23T12:15:36;10.80;55.50
19248;DHT22;9758;48.640;8.148;2024-03-23T12:18:10;10.70;55.30
19248;DHT22;9758;48.640;8.148;2024-03-23T12:20:37;10.70;55.60
19248;DHT22;9758;48.640;8.148;2024-03-23T12:23:10;10.60;55.50
19248;DHT22;9758;48.640;8.148;2024-03-23T12:25:37;10.70;55.50
19248;DHT22;9758;48.640;8.148;2024-03-23T12:28:03;10.70;55.60
19248;DHT22;9758;48.640;8.148;2024-03-23T12:30:32;10.70;55.70
19248;DHT22;9758;48.640;8.148;2024-03-23T12:32:59;10.70;55.70
19248;DHT22;9758;48.640;8.148;2024-03-23T12:35:27;10.70;55.80
19248;DHT22;9758;48.640;8.148;2024-03-23T12:37:53;10.80;55.90
19248;DHT22;9758;48.640;8.148;2024-03-23T12:40:19;10.90;56.20
19248;DHT22;9758;48.640;8.148;2024-03-23T12:42:45;11.10;56.00
19248;DHT22;9758;48.640;8.148;2024-03-23T12:45:12;11.20;55.90
19248;DHT22;9758;48.640;8.148;2024-03-23T12:47:38;11.40;56.00
19248;DHT22;9758;48.640;8.148;2024-03-23T12:50:05;11.60;55.90
19248;DHT22;9758;48.640;8.148;2024-03-23T12:52:33;11.70;55.90
19248;DHT22;9758;48.640;8.148;2024-03-23T12:54:59;11.90;55.80
19248;DHT22;9758;48.640;8.148;2024-03-23T12:57:26;12.00;55.50
19248;DHT22;9758;48.640;8.148;2024-03-23T12:59:53;12.00;55.00
19248;DHT22;9758;48.640;8.148;2024-03-23T13:02:19;12.00;55.00
19248;DHT22;9758;48.640;8.148;2024-03-23T13:04:49;12.00;54.90
19248;DHT22;9758;48.640;8.148;2024-03-23T13:07:14;12.00;54.80
19248;DHT22;9758;48.640;8.148;2024-03-23T13:09:43;11.90;54.40
19248;DHT22;9758;48.640;8.148;2024-03-23T13:12:09;11.50;54.20
19248;DHT22;9758;48.640;8.148;2024-03-23T13:14:37;11.20;54.70
19248;DHT22;9758;48.640;8.148;2024-03-23T13:17:03;11.00;55.50
19248;DHT22;9758;48.640;8.148;2024-03-23T13:19:30;10.90;55.40
19248;DHT22;9758;48.640;8.148;2024-03-23T13:21:57;10.90;55.60
19248;DHT22;9758;48.640;8.148;2024-03-23T13:24:24;10.90;55.70
19248;DHT22;9758;48.640;8.148;2024-03-23T13:26:52;11.00;55.80
19248;DHT22;9758;48.640;8.148;2024-03-23T13:29:20;11.10;55.60
19248;DHT22;9758;48.640;8.148;2024-03-23T13:31:46;11.30;55.50
19248;DHT22;9758;48.640;8.148;2024-03-23T13:34:13;11.40;55.40
19248;DHT22;9758;48.640;8.148;2024-03-23T13:36:40;11.60;55.20
19248;DHT22;9758;48.640;8.148;2024-03-23T13:39:08;11.60;54.80
19248;DHT22;9758;48.640;8.148;2024-03-23T13:41:40;11.60;54.50
19248;DHT22;9758;48.640;8.148;2024-03-23T13:44:09;11.50;54.70
19248;DHT22;9758;48.640;8.148;2024-03-23T13:46:36;11.50;54.80
19248;DHT22;9758;48.640;8.148;2024-03-23T13:49:03;11.50;54.90
19248;DHT22;9758;48.640;8.148;2024-03-23T13:51:28;11.50;54.80
19248;DHT22;9758;48.640;8.148;2024-03-23T13:53:55;11.50;54.60
19248;DHT22;9758;48.640;8.148;2024-03-23T13:56:23;11.50;54.70
19248;DHT22;9758;48.640;8.148;2024-03-23T13:58:49;11.40;54.50
19248;DHT22;9758;48.640;8.148;2024-03-23T14:01:17;11.40;54.30
19248;DHT22;9758;48.640;8.148;2024-03-23T14:03:44;11.20;54.30
19248;DHT22;9758;48.640;8.148;2024-03-23T14:06:10;11.10;54.70
19248;DHT22;9758;48.640;8.148;2024-03-23T14:08:37;11.00;54.80
19248;DHT22;9758;48.640;8.148;2024-03-23T14:11:05;11.00;55.20
19248;DHT22;9758;48.640;8.148;2024-03-23T14:13:31;11.10;55.30
19248;DHT22;9758;48.640;8.148;2024-03-23T14:15:58;11.20;55.50
19248;DHT22;9758;48.640;8.148;2024-03-23T14:18:25;11.40;55.20
19248;DHT22;9758;48.640;8.148;2024-03-23T14:20:55;11.50;54.70
19248;DHT22;9758;48.640;8.148;2024-03-23T14:23:23;11.50;54.70
19248;DHT22;9758;48.640;8.148;2024-03-23T14:25:53;11.60;54.50
19248;DHT22;9758;48.640;8.148;2024-03-23T14:28:19;11.60;54.70
19248;DHT22;9758;48.640;8.148;2024-03-23T14:30:46;11.70;54.70
19248;DHT22;9758;48.640;8.148;2024-03-23T14:33:12;11.80;54.60
19248;DHT22;9758;48.640;8.148;2024-03-23T14:35:40;11.80;54.10
19248;DHT22;9758;48.640;8.148;2024-03-23T14:38:06;11.80;54.00
19248;DHT22;9758;48.640;8.148;2024-03-23T14:40:33;11.80;53.70
19248;DHT22;9758;48.640;8.148;2024-03-23T14:42:59;11.70;53.00
19248;DHT22;9758;48.640;8.148;2024-03-23T14:45:26;11.60;52.70
19248;DHT22;9758;48.640;8.148;2024-03-23T14:47:52;11.50;53.10
19248;DHT22;9758;48.640;8.148;2024-03-23T14:50:18;11.40;53.30
19248;DHT22;9758;48.640;8.148;2024-03-23T14:52:46;11.30;53.40
19248;DHT22;9758;48.640;8.148;2024-03-23T14:55:13;11.30;53.50
19248;DHT22;9758;48.640;8.148;2024-03-23T14:57:39;11.30;53.50
19248;DHT22;9758;48.640;8.148;2024-03-23T15:00:07;11.20;53.60
19248;DHT22;9758;48.640;8.148;2024-03-23T15:02:36;11.20;53.70
19248;DHT22;9758;48.640;8.148;2024-03-23T15:05:03;11.10;53.90
19248;DHT22;9758;48.640;8.148;2024-03-23T15:07:29;11.10;54.20
19248;DHT22;9758;48.640;8.148;2024-03-23T15:09:58;11.10;54.60
19248;DHT22;9758;48.640;8.148;2024-03-23T15:12:23;11.20;54.60
19248;DHT22;9758;48.640;8.148;2024-03-23T15:14:50;11.30;54.50
19248;DHT22;9758;48.640;8.148;2024-03-23T15:17:16;11.40;54.10
19248;DHT22;9758;48.640;8.148;2024-03-23T15:19:44;11.50;53.90
19248;DHT22;9758;48.640;8.148;2024-03-23T15:22:09;11.40;53.70
19248;DHT22;9758;48.640;8.148;2024-03-23T15:24:36;11.40;53.90
19248;DHT22;9758;48.640;8.148;2024-03-23T15:27:04;11.40;53.90
19248;DHT22;9758;48.640;8.148;2024-03-23T15:29:33;11.30;53.70
19248;DHT22;9758;48.640;8.148;2024-03-23T15:31:58;11.30;53.80
19248;DHT22;9758;48.640;8.148;2024-03-23T15:34:25;11.40;54.00
19248;DHT22;9758;48.640;8.148;2024-03-23T15:36:51;11.50;54.10
19248;DHT22;9758;48.640;8.148;2024-03-23T15:39:18;11.60;54.10
19248;DHT22;9758;48.640;8.148;2024-03-23T15:41:45;11.70;53.90
19248;DHT22;9758;48.640;8.148;2024-03-23T15:44:44;11.80;53.80
19248;DHT22;9758;48.640;8.148;2024-03-23T15:47:11;11.80;53.40
19248;DHT22;9758;48.640;8.148;2024-03-23T15:49:38;11.90;53.40
19248;DHT22;9758;48.640;8.148;2024-03-23T15:52:06;11.90;53.80
19248;DHT22;9758;48.640;8.148;2024-03-23T15:54:31;11.80;53.30
19248;DHT22;9758;48.640;8.148;2024-03-23T15:56:58;11.90;53.30
19248;DHT22;9758;48.640;8.148;2024-03-23T15:59:24;12.00;54.20
19248;DHT22;9758;48.640;8.148;2024-03-23T16:01:52;12.10;53.60
19248;DHT22;9758;48.640;8.148;2024-03-23T16:04:18;12.30;53.20
19248;DHT22;9758;48.640;8.148;2024-03-23T16:06:45;12.40;53.80
19248;DHT22;9758;48.640;8.148;2024-03-23T16:09:11;12.60;54.30
19248;DHT22;9758;48.640;8.148;2024-03-23T16:11:39;12.90;54.10
19248;DHT22;9758;48.640;8.148;2024-03-23T16:14:06;13.10;53.60
19248;DHT22;9758;48.640;8.148;2024-03-23T16:16:32;13.20;53.40
19248;DHT22;9758;48.640;8.148;2024-03-23T16:19:00;13.30;53.10
19248;DHT22;9758;48.640;8.148;2024-03-23T16:21:27;13.10;52.50
19248;DHT22;9758;48.640;8.148;2024-03-23T16:23:53;13.00;52.30
19248;DHT22;9758;48.640;8.148;2024-03-23T16:26:19;12.80;52.40
19248;DHT22;9758;48.640;8.148;2024-03-23T16:28:45;12.70;52.30
19248;DHT22;9758;48.640;8.148;2024-03-23T16:31:14;12.60;52.40
19248;DHT22;9758;48.640;8.148;2024-03-23T16:33:41;12.40;52.50
19248;DHT22;9758;48.640;8.148;2024-03-23T16:36:09;12.30;52.20
19248;DHT22;9758;48.640;8.148;2024-03-23T16:38:38;12.20;51.60
19248;DHT22;9758;48.640;8.148;2024-03-23T16:41:07;11.80;51.90